createdAt,value
2019-04-04T00:05:08.336Z,99.9
2019-04-04T00:10:05.347Z,99.9
2019-04-04T00:15:05.312Z,99.9
2019-04-04T00:20:08.381Z,99.9
2019-04-04T00:25:05.830Z,99.9
2019-04-04T00:30:10.421Z,99.9
2019-04-04T00:35:07.975Z,99.9
2019-04-04T00:40:03.439Z,99.9
2019-04-04T00:45:29.523Z,99.9
2019-04-04T00:50:10.092Z,99.9
2019-04-04T00:55:07.590Z,99.9
2019-04-04T01:00:08.141Z,99.9
2019-04-04T01:05:02.930Z,99.9
2019-04-04T01:10:05.842Z,99.9
2019-04-04T01:15:22.749Z,99.9
2019-04-04T01:20:08.061Z,99.9
2019-04-04T01:25:02.671Z,99.9
2019-04-04T01:30:05.171Z,99.9
2019-04-04T01:35:03.089Z,99.9
2019-04-04T01:40:05.529Z,99.9
2019-04-04T01:45:20.674Z,99.9
2019-04-04T01:50:08.139Z,99.9
2019-04-04T01:55:04.980Z,99.9
2019-04-04T02:00:05.558Z,99.9
2019-04-04T02:05:03.000Z,99.9
2019-04-04T02:10:08.484Z,99.9
2019-04-04T02:15:05.879Z,99.9
2019-04-04T02:20:05.503Z,99.9
2019-04-04T02:25:03.921Z,99.9
2019-04-04T02:30:03.021Z,99.9
2019-04-04T02:35:03.011Z,99.9
2019-04-04T02:40:10.211Z,99.9
2019-04-04T02:45:15.548Z,99.9
2019-04-04T02:50:03.334Z,99.9
2019-04-04T02:55:08.356Z,99.9
2019-04-04T03:00:08.472Z,99.9
2019-04-04T03:05:03.352Z,99.9
2019-04-04T03:10:05.107Z,99.9
2019-04-04T03:15:10.035Z,99.9
2019-04-04T03:20:02.890Z,99.9
2019-04-04T03:25:05.411Z,99.9
2019-04-04T03:30:17.357Z,99.9
2019-04-04T03:35:05.619Z,99.9
2019-04-04T03:40:03.095Z,99.9
2019-04-04T03:45:03.428Z,99.9
2019-04-04T03:50:02.746Z,99.9
2019-04-04T03:55:30.878Z,99.9
2019-04-04T04:00:08.028Z,99.9
2019-04-04T04:05:03.058Z,99.9
2019-04-04T04:10:08.432Z,99.9
2019-04-04T04:15:08.387Z,99.9
2019-04-04T04:20:07.711Z,99.9
2019-04-04T04:25:05.446Z,99.9
2019-04-04T04:30:07.733Z,99.9
2019-04-04T04:35:09.351Z,99.9
2019-04-04T04:45:02.915Z,99.9
2019-04-04T04:50:02.902Z,99.9
2019-04-04T04:55:05.606Z,99.9
2019-04-04T05:00:02.589Z,99.9
2019-04-04T05:05:03.153Z,99.9
2019-04-04T05:10:02.635Z,99.9
2019-04-04T05:15:07.541Z,99.9
2019-04-04T05:20:02.586Z,99.9
2019-04-04T05:25:32.903Z,99.9
2019-04-04T05:30:20.880Z,99.9
2019-04-04T05:35:33.980Z,99.9
2019-04-04T05:40:08.469Z,99.9
2019-04-04T05:45:15.016Z,99.9
2019-04-04T05:50:12.212Z,99.9
2019-04-04T05:55:11.075Z,99.9
2019-04-04T06:00:08.601Z,99.9
2019-04-04T06:05:05.464Z,99.9
2019-04-04T06:10:07.942Z,99.9
2019-04-04T06:15:03.337Z,99.9
2019-04-04T06:20:10.921Z,99.9
2019-04-04T06:25:05.807Z,99.9
2019-04-04T06:30:05.435Z,99.9
2019-04-04T06:35:16.098Z,99.9
2019-04-04T06:40:02.627Z,99.9
2019-04-04T06:45:10.221Z,99.9
2019-04-04T06:50:03.176Z,99.9
2019-04-04T06:55:05.205Z,99.9
2019-04-04T07:00:03.230Z,99.9
2019-04-04T07:05:25.959Z,99.9
2019-04-04T07:10:03.415Z,99.9
2019-04-04T07:15:15.882Z,99.9
2019-04-04T07:20:03.225Z,99.9
2019-04-04T07:25:06.836Z,99.9
2019-04-04T07:30:29.479Z,99.9
2019-04-04T07:35:20.808Z,99.9
2019-04-04T07:40:04.627Z,99.9
2019-04-04T07:45:03.315Z,99.9
2019-04-04T07:50:08.473Z,99.9
2019-04-04T07:55:15.149Z,99.9
2019-04-04T08:00:10.741Z,99.9
2019-04-04T08:05:03.084Z,99.9
2019-04-04T08:10:05.125Z,99.9
2019-04-04T08:15:03.147Z,99.9
2019-04-04T08:20:03.275Z,99.9
2019-04-04T08:25:17.741Z,99.9
2019-04-04T08:30:05.269Z,99.9
2019-04-04T08:35:02.689Z,99.9
2019-04-04T08:40:03.254Z,99.9
2019-04-04T08:45:03.128Z,99.9
2019-04-04T08:50:10.216Z,99.9
2019-04-04T08:55:05.802Z,99.9
2019-04-04T09:00:02.920Z,99.9
2019-04-04T09:05:12.754Z,99.9
2019-04-04T09:10:05.894Z,99.9
2019-04-04T09:15:08.539Z,99.9
2019-04-04T09:20:12.800Z,99.9
2019-04-04T09:25:02.573Z,99.9
2019-04-04T09:30:05.147Z,99.9
2019-04-04T09:35:07.589Z,99.9
2019-04-04T09:40:05.647Z,99.9
2019-04-04T09:45:03.028Z,99.9
2019-04-04T09:50:08.277Z,99.9
2019-04-04T09:55:05.788Z,99.9
2019-04-04T10:00:15.487Z,99.9
2019-04-04T10:05:05.708Z,99.9
2019-04-04T10:10:05.835Z,99.9
2019-04-04T10:15:18.427Z,99.9
2019-04-04T10:20:07.604Z,99.9
2019-04-04T10:25:02.494Z,99.9
2019-04-04T10:30:05.144Z,99.9
2019-04-04T10:35:05.045Z,99.9
2019-04-04T10:40:30.545Z,99.9
2019-04-04T10:45:05.063Z,97.8
2019-04-04T10:50:03.075Z,97.7
2019-04-04T10:55:03.067Z,94.6
2019-04-04T11:00:03.609Z,96.7
2019-04-04T11:05:08.225Z,96.6
2019-04-04T11:10:02.765Z,96.1
2019-04-04T11:15:25.483Z,90.3
2019-04-04T11:20:05.592Z,88.3
2019-04-04T11:25:08.079Z,87.6
2019-04-04T11:30:03.212Z,87.6
2019-04-04T11:35:08.295Z,82.7
2019-04-04T11:40:07.982Z,75.6
2019-04-04T11:45:02.909Z,76.4
2019-04-04T11:50:05.570Z,73.7
2019-04-04T11:55:05.581Z,65.3
2019-04-04T12:00:05.160Z,67.6
2019-04-04T12:05:07.657Z,67.2
2019-04-04T12:10:08.303Z,67
2019-04-04T12:15:10.771Z,63.2
2019-04-04T12:20:02.945Z,63.1
2019-04-04T12:25:05.470Z,63.5
2019-04-04T12:30:07.580Z,61.4
2019-04-04T12:35:02.926Z,61.4
2019-04-04T12:40:21.627Z,58.5
2019-04-04T12:45:07.620Z,54
2019-04-04T12:50:07.812Z,50.3
2019-04-04T12:55:02.794Z,50.3
2019-04-04T13:00:05.718Z,49
2019-04-04T13:05:05.780Z,47.7
2019-04-04T13:10:12.287Z,48.1
2019-04-04T13:15:10.920Z,44.9
2019-04-04T13:20:03.080Z,45
2019-04-04T13:25:08.239Z,43.6
2019-04-04T13:30:03.351Z,43.6
2019-04-04T13:35:06.132Z,44
2019-04-04T13:40:27.973Z,39.9
2019-04-04T13:45:03.055Z,39.9
2019-04-04T13:50:08.159Z,39
2019-04-04T13:55:02.672Z,39
2019-04-04T14:00:07.602Z,37.5
2019-04-04T14:05:14.115Z,37.1
2019-04-04T14:10:02.668Z,37
2019-04-04T14:15:05.713Z,36.1
2019-04-04T14:20:02.731Z,36.1
2019-04-04T14:25:07.954Z,35.5
2019-04-04T14:30:05.508Z,35
2019-04-04T14:35:03.078Z,35
2019-04-04T14:40:03.398Z,34.8
2019-04-04T14:45:03.086Z,33.8
2019-04-04T14:50:05.018Z,34.2
2019-04-04T14:55:05.523Z,35.5
2019-04-04T15:00:05.187Z,37.4
2019-04-04T15:05:05.223Z,38.9
2019-04-04T15:10:10.548Z,40
2019-04-04T15:15:02.937Z,40
2019-04-04T15:20:03.063Z,40
2019-04-04T15:25:05.858Z,40.8
2019-04-04T15:30:15.651Z,39.5
2019-04-04T15:35:10.679Z,39.1
2019-04-04T15:40:08.322Z,38.9
2019-04-04T15:45:10.824Z,39
2019-04-04T15:50:05.356Z,39.9
2019-04-04T15:55:08.050Z,40.9
2019-04-04T16:00:10.850Z,40.1
2019-04-04T16:05:03.208Z,40.2
2019-04-04T16:10:03.303Z,40.6
2019-04-04T16:15:08.432Z,41.3
2019-04-04T16:20:10.235Z,41.4
2019-04-04T16:25:20.315Z,41.8
2019-04-04T16:30:08.510Z,42.5
2019-04-04T16:35:10.059Z,42.5
2019-04-04T16:40:09.871Z,42.8
2019-04-04T16:45:17.840Z,42.9
2019-04-04T16:50:07.979Z,43.6
2019-04-04T16:55:08.186Z,43.7
2019-04-04T17:00:03.357Z,43.7
2019-04-04T17:05:05.546Z,44.4
2019-04-04T17:10:03.102Z,44.3
2019-04-04T17:15:03.178Z,45
2019-04-04T17:20:03.303Z,45.3
2019-04-04T17:25:02.933Z,46.5
2019-04-04T17:30:03.118Z,47.5
2019-04-04T17:35:07.727Z,49.7
2019-04-04T17:40:03.267Z,49.6
2019-04-04T17:45:03.344Z,52.1
2019-04-04T17:50:13.302Z,51.3
2019-04-04T17:55:10.841Z,52.5
2019-04-04T18:00:08.176Z,53
2019-04-04T18:05:03.063Z,53
2019-04-04T18:10:02.628Z,55.7
2019-04-04T18:15:07.738Z,55.2
2019-04-04T18:20:02.783Z,55.3
2019-04-04T18:25:03.048Z,61.1
2019-04-04T18:30:03.114Z,68.9
2019-04-04T18:35:05.120Z,80.9
2019-04-04T18:40:07.600Z,93.3
2019-04-04T18:45:07.718Z,94.9
2019-04-04T18:50:10.590Z,96
2019-04-04T18:55:03.066Z,96
2019-04-04T19:00:05.670Z,99
2019-04-04T19:05:08.185Z,99.9
2019-04-04T19:10:22.890Z,99.9
2019-04-04T19:15:08.154Z,99.9
2019-04-04T19:20:11.113Z,99.9
2019-04-04T19:25:05.968Z,99.9
2019-04-04T19:30:15.735Z,99.9
2019-04-04T19:35:08.095Z,99.9
2019-04-04T19:40:10.195Z,99.9
2019-04-04T19:45:02.561Z,99.9
2019-04-04T19:50:02.594Z,99.9
2019-04-04T19:55:05.667Z,99.9
2019-04-04T20:00:07.766Z,99.9
2019-04-04T20:05:02.683Z,99.9
2019-04-04T20:10:10.813Z,99.9
2019-04-04T20:15:05.740Z,99.9
2019-04-04T20:20:05.365Z,99.9
2019-04-04T20:25:02.814Z,99.9
2019-04-04T20:30:02.884Z,99.9
2019-04-04T20:35:02.844Z,99.9
2019-04-04T20:40:03.474Z,99.9
2019-04-04T20:45:03.455Z,99.9
2019-04-04T20:50:05.055Z,99.9
2019-04-04T20:55:07.699Z,99.9
2019-04-04T21:00:05.212Z,99.9
2019-04-04T21:05:10.243Z,99.9
2019-04-04T21:10:05.259Z,99.9
2019-04-04T21:15:12.878Z,99.9
2019-04-04T21:20:05.491Z,99.9
2019-04-04T21:25:03.439Z,99.9
2019-04-04T21:30:06.035Z,99.9
2019-04-04T21:35:05.090Z,99.9
2019-04-04T21:40:02.616Z,99.9
2019-04-04T21:45:10.148Z,99.9
2019-04-04T21:50:03.177Z,99.9
2019-04-04T21:55:23.363Z,99.9
2019-04-04T22:00:03.407Z,99.9
2019-04-04T22:05:10.900Z,99.9
2019-04-04T22:10:05.860Z,99.9
2019-04-04T22:15:08.068Z,99.9
2019-04-04T22:20:03.185Z,99.9
2019-04-04T22:25:05.688Z,99.9
2019-04-04T22:30:15.344Z,99.9
2019-04-04T22:35:05.277Z,99.9
2019-04-04T22:40:02.752Z,99.9
2019-04-04T22:45:10.348Z,99.9
2019-04-04T22:50:18.496Z,99.9
2019-04-04T22:55:03.256Z,99.9
2019-04-04T23:00:20.334Z,99.9
2019-04-04T23:05:05.262Z,99.9
2019-04-04T23:10:02.743Z,99.9
2019-04-04T23:15:02.694Z,99.9
2019-04-04T23:20:12.884Z,99.9
2019-04-04T23:25:02.717Z,99.9
2019-04-04T23:30:05.190Z,99.9
2019-04-04T23:35:17.876Z,99.9
2019-04-04T23:40:05.829Z,99.9
2019-04-04T23:45:03.220Z,99.9
2019-04-04T23:50:08.304Z,99.9
2019-04-04T23:55:03.128Z,99.9
